sensor_id;sensor_type;location;lat;lon;timestamp;pressure;altitude;pressure_sealevel;temperature;humidity
75221;BME280;63802;53.232;6.570;2023-05-07T00:00:33;101882.50;;;11.14;92.88
75221;BME280;63802;53.232;6.570;2023-05-07T00:02:59;101883.22;;;11.11;92.48
75221;BME280;63802;53.232;6.570;2023-05-07T00:05:25;101853.69;;;10.92;92.60
75221;BME280;63802;53.232;6.570;2023-05-07T00:07:52;101884.56;;;11.05;92.90
75221;BME280;63802;53.232;6.570;2023-05-07T00:10:18;101876.81;;;10.95;92.67
75221;BME280;63802;53.232;6.570;2023-05-07T00:12:44;101876.59;;;11.00;92.80
75221;BME280;63802;53.232;6.570;2023-05-07T00:15:10;101890.44;;;10.95;93.03
75221;BME280;63802;53.232;6.570;2023-05-07T00:17:35;101901.28;;;10.91;93.09
75221;BME280;63802;53.232;6.570;2023-05-07T00:20:02;101894.56;;;10.89;92.97
75221;BME280;63802;53.232;6.570;2023-05-07T00:22:28;101895.34;;;10.89;92.80
75221;BME280;63802;53.232;6.570;2023-05-07T00:24:55;101896.81;;;10.87;92.87
75221;BME280;63802;53.232;6.570;2023-05-07T00:27:20;101897.03;;;10.82;93.28
75221;BME280;63802;53.232;6.570;2023-05-07T00:29:46;101897.03;;;10.82;93.39
75221;BME280;63802;53.232;6.570;2023-05-07T00:32:11;101889.28;;;10.71;93.47
75221;BME280;63802;53.232;6.570;2023-05-07T00:34:36;101892.25;;;10.78;93.40
75221;BME280;63802;53.232;6.570;2023-05-07T00:37:02;101911.56;;;10.73;93.16
75221;BME280;63802;53.232;6.570;2023-05-07T00:39:27;101893.81;;;10.67;93.46
75221;BME280;63802;53.232;6.570;2023-05-07T00:41:52;101896.06;;;10.65;93.31
75221;BME280;63802;53.232;6.570;2023-05-07T00:44:18;101887.50;;;10.55;93.83
75221;BME280;63802;53.232;6.570;2023-05-07T00:46:43;101903.34;;;10.61;93.72
75221;BME280;63802;53.232;6.570;2023-05-07T00:49:10;101892.31;;;10.58;93.72
75221;BME280;63802;53.232;6.570;2023-05-07T00:51:36;101898.44;;;10.55;93.93
75221;BME280;63802;53.232;6.570;2023-05-07T00:54:02;101899.25;;;10.55;93.95
75221;BME280;63802;53.232;6.570;2023-05-07T00:56:28;101898.28;;;10.51;94.28
75221;BME280;63802;53.232;6.570;2023-05-07T00:58:58;101904.69;;;10.55;94.04
75221;BME280;63802;53.232;6.570;2023-05-07T01:01:23;101905.34;;;10.52;94.37
75221;BME280;63802;53.232;6.570;2023-05-07T01:03:49;101902.16;;;10.50;94.40
75221;BME280;63802;53.232;6.570;2023-05-07T01:06:15;101895.91;;;10.50;94.69
75221;BME280;63802;53.232;6.570;2023-05-07T01:08:42;101887.94;;;10.45;94.66
75221;BME280;63802;53.232;6.570;2023-05-07T01:11:08;101891.00;;;10.43;94.83
75221;BME280;63802;53.232;6.570;2023-05-07T01:13:38;101889.03;;;10.44;94.86
75221;BME280;63802;53.232;6.570;2023-05-07T01:16:04;101891.47;;;10.45;94.73
75221;BME280;63802;53.232;6.570;2023-05-07T01:18:30;101894.66;;;10.47;94.95
75221;BME280;63802;53.232;6.570;2023-05-07T01:20:58;101893.38;;;10.45;94.96
75221;BME280;63802;53.232;6.570;2023-05-07T01:23:25;101879.38;;;10.46;95.08
75221;BME280;63802;53.232;6.570;2023-05-07T01:25:53;101893.03;;;10.46;95.03
75221;BME280;63802;53.232;6.570;2023-05-07T01:28:19;101887.38;;;10.51;95.17
75221;BME280;63802;53.232;6.570;2023-05-07T01:30:49;101894.31;;;10.49;95.17
75221;BME280;63802;53.232;6.570;2023-05-07T01:33:19;101890.91;;;10.52;95.50
75221;BME280;63802;53.232;6.570;2023-05-07T01:35:50;101896.81;;;10.54;95.24
75221;BME280;63802;53.232;6.570;2023-05-07T01:38:18;101896.00;;;10.53;95.29
75221;BME280;63802;53.232;6.570;2023-05-07T01:40:43;101897.63;;;10.54;95.33
75221;BME280;63802;53.232;6.570;2023-05-07T01:43:12;101891.72;;;10.52;95.42
75221;BME280;63802;53.232;6.570;2023-05-07T01:45:38;101889.66;;;10.49;95.78
75221;BME280;63802;53.232;6.570;2023-05-07T01:48:04;101885.78;;;10.50;95.61
75221;BME280;63802;53.232;6.570;2023-05-07T01:50:30;101899.75;;;10.49;95.40
75221;BME280;63802;53.232;6.570;2023-05-07T01:52:57;101889.53;;;10.46;95.30
75221;BME280;63802;53.232;6.570;2023-05-07T01:55:22;101902.38;;;10.45;95.42
75221;BME280;63802;53.232;6.570;2023-05-07T01:57:48;101905.09;;;10.45;95.40
75221;BME280;63802;53.232;6.570;2023-05-07T02:00:14;101898.72;;;10.41;95.66
75221;BME280;63802;53.232;6.570;2023-05-07T02:02:40;101886.88;;;10.37;95.45
75221;BME280;63802;53.232;6.570;2023-05-07T02:05:05;101867.16;;;10.20;95.59
75221;BME280;63802;53.232;6.570;2023-05-07T02:07:31;101855.63;;;10.14;95.72
75221;BME280;63802;53.232;6.570;2023-05-07T02:09:56;101871.59;;;10.24;95.54
75221;BME280;63802;53.232;6.570;2023-05-07T02:12:22;101886.41;;;10.35;95.67
75221;BME280;63802;53.232;6.570;2023-05-07T02:14:48;101886.88;;;10.37;95.63
75221;BME280;63802;53.232;6.570;2023-05-07T02:17:14;101898.13;;;10.36;95.81
75221;BME280;63802;53.232;6.570;2023-05-07T02:19:40;101892.97;;;10.34;95.92
75221;BME280;63802;53.232;6.570;2023-05-07T02:22:06;101883.78;;;10.27;95.79
75221;BME280;63802;53.232;6.570;2023-05-07T02:24:31;101886.59;;;10.30;95.75
75221;BME280;63802;53.232;6.570;2023-05-07T02:26:57;101891.41;;;10.33;95.85
75221;BME280;63802;53.232;6.570;2023-05-07T02:29:22;101896.88;;;10.33;95.84
75221;BME280;63802;53.232;6.570;2023-05-07T02:31:47;101877.72;;;10.21;96.06
75221;BME280;63802;53.232;6.570;2023-05-07T02:34:18;101890.94;;;10.31;96.04
75221;BME280;63802;53.232;6.570;2023-05-07T02:36:44;101895.00;;;10.25;95.82
75221;BME280;63802;53.232;6.570;2023-05-07T02:39:09;101891.59;;;10.28;96.21
75221;BME280;63802;53.232;6.570;2023-05-07T02:41:35;101902.97;;;10.30;96.01
75221;BME280;63802;53.232;6.570;2023-05-07T02:44:00;101906.72;;;10.26;96.18
75221;BME280;63802;53.232;6.570;2023-05-07T02:46:26;101910.69;;;10.28;96.17
75221;BME280;63802;53.232;6.570;2023-05-07T02:48:51;101909.25;;;10.31;96.42
75221;BME280;63802;53.232;6.570;2023-05-07T02:51:21;101905.41;;;10.32;96.29
75221;BME280;63802;53.232;6.570;2023-05-07T02:53:47;101916.31;;;10.32;96.47
75221;BME280;63802;53.232;6.570;2023-05-07T02:56:13;101889.94;;;10.15;96.08
75221;BME280;63802;53.232;6.570;2023-05-07T02:58:38;101896.34;;;10.19;96.50
75221;BME280;63802;53.232;6.570;2023-05-07T03:01:05;101908.31;;;10.27;96.31
75221;BME280;63802;53.232;6.570;2023-05-07T03:03:30;101896.34;;;10.19;96.31
75221;BME280;63802;53.232;6.570;2023-05-07T03:05:56;101905.25;;;10.28;96.40
75221;BME280;63802;53.232;6.570;2023-05-07T03:08:22;101886.75;;;10.13;96.50
75221;BME280;63802;53.232;6.570;2023-05-07T03:10:47;101896.66;;;10.18;96.40
75221;BME280;63802;53.232;6.570;2023-05-07T03:13:12;101904.84;;;10.18;96.73
75221;BME280;63802;53.232;6.570;2023-05-07T03:15:38;101894.44;;;10.11;96.59
75221;BME280;63802;53.232;6.570;2023-05-07T03:18:03;101900.53;;;10.17;96.36
75221;BME280;63802;53.232;6.570;2023-05-07T03:20:29;101901.00;;;10.19;96.55
75221;BME280;63802;53.232;6.570;2023-05-07T03:22:55;101893.63;;;10.10;96.60
75221;BME280;63802;53.232;6.570;2023-05-07T03:25:20;101895.41;;;10.15;96.36
75221;BME280;63802;53.232;6.570;2023-05-07T03:27:46;101882.16;;;10.05;96.49
75221;BME280;63802;53.232;6.570;2023-05-07T03:30:11;101883.06;;;10.09;96.48
75221;BME280;63802;53.232;6.570;2023-05-07T03:32:37;101875.53;;;10.06;96.69
75221;BME280;63802;53.232;6.570;2023-05-07T03:35:03;101890.63;;;10.12;96.55
75221;BME280;63802;53.232;6.570;2023-05-07T03:37:28;101876.44;;;9.98;96.33
75221;BME280;63802;53.232;6.570;2023-05-07T03:39:54;101905.34;;;10.11;96.62
75221;BME280;63802;53.232;6.570;2023-05-07T03:42:19;101893.53;;;10.07;96.67
75221;BME280;63802;53.232;6.570;2023-05-07T03:44:45;101899.28;;;10.05;96.35
75221;BME280;63802;53.232;6.570;2023-05-07T03:47:11;101892.56;;;10.03;96.47
75221;BME280;63802;53.232;6.570;2023-05-07T03:49:39;101887.13;;;10.03;96.58
75221;BME280;63802;53.232;6.570;2023-05-07T03:52:07;101879.34;;;9.93;96.63
75221;BME280;63802;53.232;6.570;2023-05-07T03:54:33;101880.00;;;9.90;96.37
75221;BME280;63802;53.232;6.570;2023-05-07T03:56:58;101876.84;;;9.79;96.46
75221;BME280;63802;53.232;6.570;2023-05-07T03:59:24;101901.63;;;9.95;96.46
75221;BME280;63802;53.232;6.570;2023-05-07T04:01:49;101911.88;;;9.98;96.46
75221;BME280;63802;53.232;6.570;2023-05-07T04:04:15;101907.88;;;9.95;96.65
75221;BME280;63802;53.232;6.570;2023-05-07T04:06:41;101910.94;;;9.94;96.46
75221;BME280;63802;53.232;6.570;2023-05-07T04:09:06;101911.59;;;9.91;96.73
75221;BME280;63802;53.232;6.570;2023-05-07T04:11:32;101905.56;;;9.77;96.74
75221;BME280;63802;53.232;6.570;2023-05-07T04:13:57;101909.72;;;9.83;96.11
75221;BME280;63802;53.232;6.570;2023-05-07T04:16:23;101931.00;;;9.89;96.50
75221;BME280;63802;53.232;6.570;2023-05-07T04:18:48;101921.91;;;9.85;96.92
75221;BME280;63802;53.232;6.570;2023-05-07T04:21:19;101923.16;;;9.88;96.76
75221;BME280;63802;53.232;6.570;2023-05-07T04:23:46;101923.97;;;9.88;96.55
75221;BME280;63802;53.232;6.570;2023-05-07T04:26:11;101932.47;;;9.87;96.62
75221;BME280;63802;53.232;6.570;2023-05-07T04:28:38;101902.47;;;9.66;96.70
75221;BME280;63802;53.232;6.570;2023-05-07T04:31:04;101921.00;;;9.73;96.51
75221;BME280;63802;53.232;6.570;2023-05-07T04:33:31;101907.56;;;9.68;96.72
75221;BME280;63802;53.232;6.570;2023-05-07T04:35:57;101932.66;;;9.82;96.68
75221;BME280;63802;53.232;6.570;2023-05-07T04:38:22;101930.25;;;9.80;96.38
75221;BME280;63802;53.232;6.570;2023-05-07T04:40:50;101925.81;;;9.76;96.63
75221;BME280;63802;53.232;6.570;2023-05-07T04:43:16;101921.00;;;9.73;96.80
75221;BME280;63802;53.232;6.570;2023-05-07T04:45:41;101926.75;;;9.80;96.71
75221;BME280;63802;53.232;6.570;2023-05-07T04:48:09;101925.34;;;9.74;96.51
75221;BME280;63802;53.232;6.570;2023-05-07T04:50:34;101920.06;;;9.69;96.37
75221;BME280;63802;53.232;6.570;2023-05-07T04:53:00;101933.34;;;9.79;96.38
75221;BME280;63802;53.232;6.570;2023-05-07T04:55:26;101926.47;;;9.73;96.51
75221;BME280;63802;53.232;6.570;2023-05-07T04:57:52;101933.97;;;9.76;96.31
75221;BME280;63802;53.232;6.570;2023-05-07T05:00:18;101929.47;;;9.80;96.32
75221;BME280;63802;53.232;6.570;2023-05-07T05:02:45;101931.25;;;9.76;96.30
75221;BME280;63802;53.232;6.570;2023-05-07T05:05:11;101931.25;;;9.76;96.31
75221;BME280;63802;53.232;6.570;2023-05-07T05:07:36;101944.69;;;9.81;96.50
75221;BME280;63802;53.232;6.570;2023-05-07T05:10:02;101946.28;;;9.82;95.94
75221;BME280;63802;53.232;6.570;2023-05-07T05:12:29;101942.44;;;9.83;95.97
75221;BME280;63802;53.232;6.570;2023-05-07T05:14:55;101936.72;;;9.76;95.82
75221;BME280;63802;53.232;6.570;2023-05-07T05:17:20;101937.63;;;9.80;96.06
75221;BME280;63802;53.232;6.570;2023-05-07T05:19:46;101940.97;;;9.85;95.86
75221;BME280;63802;53.232;6.570;2023-05-07T05:22:12;101933.13;;;9.84;95.99
75221;BME280;63802;53.232;6.570;2023-05-07T05:24:37;101942.25;;;9.88;95.66
75221;BME280;63802;53.232;6.570;2023-05-07T05:27:02;101940.34;;;9.88;95.89
75221;BME280;63802;53.232;6.570;2023-05-07T05:29:29;101952.69;;;9.86;96.02
75221;BME280;63802;53.232;6.570;2023-05-07T05:31:56;101938.28;;;9.77;95.36
75221;BME280;63802;53.232;6.570;2023-05-07T05:34:22;101954.81;;;9.80;95.76
75221;BME280;63802;53.232;6.570;2023-05-07T05:36:47;101961.88;;;9.73;95.60
75221;BME280;63802;53.232;6.570;2023-05-07T05:39:13;101964.91;;;9.80;95.44
75221;BME280;63802;53.232;6.570;2023-05-07T05:41:39;101973.81;;;9.89;95.56
75221;BME280;63802;53.232;6.570;2023-05-07T05:44:05;101972.88;;;9.85;95.47
75221;BME280;63802;53.232;6.570;2023-05-07T05:46:30;101973.06;;;9.80;95.52
75221;BME280;63802;53.232;6.570;2023-05-07T05:48:56;101952.78;;;9.69;95.19
75221;BME280;63802;53.232;6.570;2023-05-07T05:51:22;101965.56;;;9.77;95.36
75221;BME280;63802;53.232;6.570;2023-05-07T05:53:48;101979.69;;;9.79;95.50
75221;BME280;63802;53.232;6.570;2023-05-07T05:56:14;101960.63;;;9.70;95.19
75221;BME280;63802;53.232;6.570;2023-05-07T05:58:40;101977.41;;;9.81;95.03
75221;BME280;63802;53.232;6.570;2023-05-07T06:01:05;101981.69;;;9.90;95.28
75221;BME280;63802;53.232;6.570;2023-05-07T06:03:31;101973.06;;;9.88;94.67
75221;BME280;63802;53.232;6.570;2023-05-07T06:05:57;101973.81;;;9.89;94.94
75221;BME280;63802;53.232;6.570;2023-05-07T06:08:25;101947.25;;;9.86;95.06
75221;BME280;63802;53.232;6.570;2023-05-07T06:10:50;101949.19;;;9.77;94.89
75221;BME280;63802;53.232;6.570;2023-05-07T06:13:16;101969.97;;;9.90;94.63
75221;BME280;63802;53.232;6.570;2023-05-07T06:15:41;101963.88;;;9.93;94.67
75221;BME280;63802;53.232;6.570;2023-05-07T06:18:07;101968.19;;;9.94;94.51
75221;BME280;63802;53.232;6.570;2023-05-07T06:20:32;101944.50;;;9.86;94.58
75221;BME280;63802;53.232;6.570;2023-05-07T06:22:57;101968.28;;;10.06;94.41
75221;BME280;63802;53.232;6.570;2023-05-07T06:25:23;101968.56;;;10.13;94.12
75221;BME280;63802;53.232;6.570;2023-05-07T06:27:48;101973.22;;;10.13;93.77
75221;BME280;63802;53.232;6.570;2023-05-07T06:30:14;101967.28;;;10.19;93.99
75221;BME280;63802;53.232;6.570;2023-05-07T06:32:40;101953.16;;;10.17;93.97
75221;BME280;63802;53.232;6.570;2023-05-07T06:35:06;101968.84;;;10.20;93.69
75221;BME280;63802;53.232;6.570;2023-05-07T06:37:31;101979.19;;;10.35;93.78
75221;BME280;63802;53.232;6.570;2023-05-07T06:39:57;101977.63;;;10.26;93.60
75221;BME280;63802;53.232;6.570;2023-05-07T06:42:22;101989.75;;;10.37;93.45
75221;BME280;63802;53.232;6.570;2023-05-07T06:44:48;101994.53;;;10.40;93.26
75221;BME280;63802;53.232;6.570;2023-05-07T06:47:14;101993.47;;;10.32;92.90
75221;BME280;63802;53.232;6.570;2023-05-07T06:49:39;101984.56;;;10.23;92.94
75221;BME280;63802;53.232;6.570;2023-05-07T06:52:04;101984.38;;;10.28;92.84
75221;BME280;63802;53.232;6.570;2023-05-07T06:54:30;101989.91;;;10.40;92.59
75221;BME280;63802;53.232;6.570;2023-05-07T06:56:55;101989.09;;;10.40;92.29
75221;BME280;63802;53.232;6.570;2023-05-07T06:59:21;102006.13;;;10.37;92.44
75221;BME280;63802;53.232;6.570;2023-05-07T07:01:46;102001.47;;;10.37;92.37
75221;BME280;63802;53.232;6.570;2023-05-07T07:04:12;101992.41;;;10.25;92.09
75221;BME280;63802;53.232;6.570;2023-05-07T07:06:37;102011.66;;;10.28;91.89
75221;BME280;63802;53.232;6.570;2023-05-07T07:09:03;102007.31;;;10.27;91.83
75221;BME280;63802;53.232;6.570;2023-05-07T07:11:28;102017.25;;;10.32;91.69
75221;BME280;63802;53.232;6.570;2023-05-07T07:13:54;102016.91;;;10.33;91.80
75221;BME280;63802;53.232;6.570;2023-05-07T07:16:20;102023.75;;;10.39;91.74
75221;BME280;63802;53.232;6.570;2023-05-07T07:18:46;102021.97;;;10.43;91.44
75221;BME280;63802;53.232;6.570;2023-05-07T07:21:11;102020.75;;;10.32;91.59
75221;BME280;63802;53.232;6.570;2023-05-07T07:23:37;102020.91;;;10.36;90.96
75221;BME280;63802;53.232;6.570;2023-05-07T07:26:02;102038.75;;;10.33;91.07
75221;BME280;63802;53.232;6.570;2023-05-07T07:28:28;102028.63;;;10.34;91.07
75221;BME280;63802;53.232;6.570;2023-05-07T07:30:53;102036.63;;;10.39;91.49
75221;BME280;63802;53.232;6.570;2023-05-07T07:33:19;102035.75;;;10.47;91.11
75221;BME280;63802;53.232;6.570;2023-05-07T07:35:44;102021.53;;;10.41;91.02
75221;BME280;63802;53.232;6.570;2023-05-07T07:38:10;102024.72;;;10.43;91.08
75221;BME280;63802;53.232;6.570;2023-05-07T07:40:35;102019.66;;;10.33;91.29
75221;BME280;63802;53.232;6.570;2023-05-07T07:43:01;102024.91;;;10.38;90.92
75221;BME280;63802;53.232;6.570;2023-05-07T07:45:27;102029.41;;;10.34;90.95
75221;BME280;63802;53.232;6.570;2023-05-07T07:47:52;102036.75;;;10.42;90.93
75221;BME280;63802;53.232;6.570;2023-05-07T07:50:17;102013.72;;;10.31;90.62
75221;BME280;63802;53.232;6.570;2023-05-07T07:52:43;102027.53;;;10.55;90.63
75221;BME280;63802;53.232;6.570;2023-05-07T07:55:09;102030.25;;;10.55;90.63
75221;BME280;63802;53.232;6.570;2023-05-07T07:57:35;102029.44;;;10.55;90.39
75221;BME280;63802;53.232;6.570;2023-05-07T08:00:01;102034.50;;;10.65;90.57
75221;BME280;63802;53.232;6.570;2023-05-07T08:02:26;102021.13;;;10.72;90.33
75221;BME280;63802;53.232;6.570;2023-05-07T08:04:52;102034.69;;;10.81;90.10
75221;BME280;63802;53.232;6.570;2023-05-07T08:07:18;102025.84;;;10.84;90.15
75221;BME280;63802;53.232;6.570;2023-05-07T08:09:45;102022.91;;;10.89;89.74
75221;BME280;63802;53.232;6.570;2023-05-07T08:12:11;102038.88;;;10.99;89.75
75221;BME280;63802;53.232;6.570;2023-05-07T08:14:37;102032.28;;;11.00;89.53
75221;BME280;63802;53.232;6.570;2023-05-07T08:17:02;102015.00;;;11.08;89.12
75221;BME280;63802;53.232;6.570;2023-05-07T08:19:28;102025.28;;;11.23;89.27
75221;BME280;63802;53.232;6.570;2023-05-07T08:21:53;102007.72;;;11.12;88.77
75221;BME280;63802;53.232;6.570;2023-05-07T08:24:19;102031.72;;;11.39;88.62
75221;BME280;63802;53.232;6.570;2023-05-07T08:26:44;102024.41;;;11.31;88.40
75221;BME280;63802;53.232;6.570;2023-05-07T08:29:13;102022.38;;;11.40;88.24
75221;BME280;63802;53.232;6.570;2023-05-07T08:31:38;102025.59;;;11.42;87.86
75221;BME280;63802;53.232;6.570;2023-05-07T08:34:05;102039.38;;;11.58;87.87
75221;BME280;63802;53.232;6.570;2023-05-07T08:36:31;102045.66;;;11.58;87.55
75221;BME280;63802;53.232;6.570;2023-05-07T08:38:57;102024.78;;;11.41;87.20
75221;BME280;63802;53.232;6.570;2023-05-07T08:41:22;102028.16;;;11.71;87.03
75221;BME280;63802;53.232;6.570;2023-05-07T08:43:49;102037.63;;;11.74;86.88
75221;BME280;63802;53.232;6.570;2023-05-07T08:46:20;102042.06;;;11.90;86.24
75221;BME280;63802;53.232;6.570;2023-05-07T08:48:49;102039.09;;;12.07;85.86
75221;BME280;63802;53.232;6.570;2023-05-07T08:51:20;102046.19;;;12.21;85.65
75221;BME280;63802;53.232;6.570;2023-05-07T08:53:47;102046.84;;;12.42;85.13
75221;BME280;63802;53.232;6.570;2023-05-07T08:56:16;102047.47;;;12.63;84.87
75221;BME280;63802;53.232;6.570;2023-05-07T08:58:43;102038.84;;;12.49;84.02
75221;BME280;63802;53.232;6.570;2023-05-07T09:01:11;102055.25;;;12.61;83.74
75221;BME280;63802;53.232;6.570;2023-05-07T09:03:38;102038.47;;;12.62;83.11
75221;BME280;63802;53.232;6.570;2023-05-07T09:06:04;102050.00;;;12.56;82.89
75221;BME280;63802;53.232;6.570;2023-05-07T09:08:30;102054.81;;;12.47;83.00
75221;BME280;63802;53.232;6.570;2023-05-07T09:10:57;102044.09;;;12.54;82.95
75221;BME280;63802;53.232;6.570;2023-05-07T09:13:23;102047.81;;;12.73;82.64
75221;BME280;63802;53.232;6.570;2023-05-07T09:15:48;102038.81;;;12.89;82.41
75221;BME280;63802;53.232;6.570;2023-05-07T09:18:14;102046.22;;;13.12;82.07
75221;BME280;63802;53.232;6.570;2023-05-07T09:20:40;102052.81;;;13.11;81.35
75221;BME280;63802;53.232;6.570;2023-05-07T09:23:08;102064.59;;;13.12;81.48
75221;BME280;63802;53.232;6.570;2023-05-07T09:25:37;102042.97;;;12.83;81.01
75221;BME280;63802;53.232;6.570;2023-05-07T09:28:04;102061.94;;;13.03;81.18
75221;BME280;63802;53.232;6.570;2023-05-07T09:30:31;102053.72;;;13.15;80.80
75221;BME280;63802;53.232;6.570;2023-05-07T09:32:58;102060.81;;;13.16;80.40
75221;BME280;63802;53.232;6.570;2023-05-07T09:35:26;102061.75;;;13.52;80.79
75221;BME280;63802;53.232;6.570;2023-05-07T09:37:57;102044.00;;;13.77;80.18
75221;BME280;63802;53.232;6.570;2023-05-07T09:40:28;102055.56;;;13.55;79.07
75221;BME280;63802;53.232;6.570;2023-05-07T09:42:54;102048.97;;;13.28;78.97
75221;BME280;63802;53.232;6.570;2023-05-07T09:45:27;102047.66;;;13.37;79.15
75221;BME280;63802;53.232;6.570;2023-05-07T09:47:57;102047.41;;;13.42;78.94
75221;BME280;63802;53.232;6.570;2023-05-07T09:50:28;102047.09;;;13.60;79.14
75221;BME280;63802;53.232;6.570;2023-05-07T09:52:55;102036.13;;;13.60;78.76
75221;BME280;63802;53.232;6.570;2023-05-07T09:55:22;102051.78;;;13.90;78.36
75221;BME280;63802;53.232;6.570;2023-05-07T09:57:50;102032.66;;;13.94;78.68
75221;BME280;63802;53.232;6.570;2023-05-07T10:00:19;102048.13;;;14.33;78.56
75221;BME280;63802;53.232;6.570;2023-05-07T10:02:46;102042.94;;;14.47;77.00
75221;BME280;63802;53.232;6.570;2023-05-07T10:05:14;102044.66;;;14.36;76.55
75221;BME280;63802;53.232;6.570;2023-05-07T10:07:40;102043.25;;;14.61;76.08
75221;BME280;63802;53.232;6.570;2023-05-07T10:10:07;102029.94;;;14.44;75.72
75221;BME280;63802;53.232;6.570;2023-05-07T10:12:33;102031.66;;;14.18;75.87
75221;BME280;63802;53.232;6.570;2023-05-07T10:15:09;102040.13;;;14.28;76.54
75221;BME280;63802;53.232;6.570;2023-05-07T10:17:36;102050.50;;;14.69;76.35
75221;BME280;63802;53.232;6.570;2023-05-07T10:20:03;102038.91;;;14.41;75.47
75221;BME280;63802;53.232;6.570;2023-05-07T10:22:34;102052.88;;;14.21;76.45
75221;BME280;63802;53.232;6.570;2023-05-07T10:25:02;102045.13;;;14.07;76.54
75221;BME280;63802;53.232;6.570;2023-05-07T10:27:29;102051.66;;;14.18;76.51
75221;BME280;63802;53.232;6.570;2023-05-07T10:30:13;102052.72;;;14.29;76.14
75221;BME280;63802;53.232;6.570;2023-05-07T10:35:20;102059.28;;;14.09;76.77
75221;BME280;63802;53.232;6.570;2023-05-07T10:37:46;102058.47;;;14.24;76.54
75221;BME280;63802;53.232;6.570;2023-05-07T10:40:12;102054.31;;;14.30;76.46
75221;BME280;63802;53.232;6.570;2023-05-07T10:42:39;102049.53;;;14.27;76.12
75221;BME280;63802;53.232;6.570;2023-05-07T10:45:18;102062.63;;;14.18;76.70
75221;BME280;63802;53.232;6.570;2023-05-07T10:48:06;102077.00;;;14.27;77.46
75221;BME280;63802;53.232;6.570;2023-05-07T10:50:32;102055.03;;;14.27;76.87
75221;BME280;63802;53.232;6.570;2023-05-07T10:55:42;102063.34;;;14.46;76.29
75221;BME280;63802;53.232;6.570;2023-05-07T11:00:56;102055.63;;;15.09;75.25
75221;BME280;63802;53.232;6.570;2023-05-07T11:03:22;102061.19;;;15.32;74.63
75221;BME280;63802;53.232;6.570;2023-05-07T11:11:17;102028.00;;;16.68;71.42
75221;BME280;63802;53.232;6.570;2023-05-07T11:16:19;102044.78;;;16.30;70.29
75221;BME280;63802;53.232;6.570;2023-05-07T11:18:53;102041.50;;;16.21;70.32
75221;BME280;63802;53.232;6.570;2023-05-07T11:24:04;102030.53;;;16.24;71.18
75221;BME280;63802;53.232;6.570;2023-05-07T11:26:41;102040.75;;;16.50;71.20
75221;BME280;63802;53.232;6.570;2023-05-07T11:29:12;102035.03;;;16.09;70.83
75221;BME280;63802;53.232;6.570;2023-05-07T11:31:38;102044.88;;;16.37;70.53
75221;BME280;63802;53.232;6.570;2023-05-07T11:34:03;102026.44;;;16.41;71.31
75221;BME280;63802;53.232;6.570;2023-05-07T11:36:32;102053.00;;;16.82;71.36
75221;BME280;63802;53.232;6.570;2023-05-07T11:38:58;102049.63;;;17.29;69.29
75221;BME280;63802;53.232;6.570;2023-05-07T11:41:33;102052.50;;;17.06;68.66
75221;BME280;63802;53.232;6.570;2023-05-07T11:43:59;102051.69;;;17.02;68.54
75221;BME280;63802;53.232;6.570;2023-05-07T11:46:25;102051.00;;;16.79;69.06
75221;BME280;63802;53.232;6.570;2023-05-07T11:48:51;102050.44;;;16.96;68.92
75221;BME280;63802;53.232;6.570;2023-05-07T11:51:35;102050.38;;;17.63;69.01
75221;BME280;63802;53.232;6.570;2023-05-07T11:54:03;102043.03;;;17.81;67.93
75221;BME280;63802;53.232;6.570;2023-05-07T11:56:29;102050.38;;;17.63;66.60
75221;BME280;63802;53.232;6.570;2023-05-07T11:58:59;102055.97;;;17.70;67.51
75221;BME280;63802;53.232;6.570;2023-05-07T12:01:24;102051.97;;;17.64;66.62
75221;BME280;63802;53.232;6.570;2023-05-07T12:03:49;102055.22;;;17.73;67.48
75221;BME280;63802;53.232;6.570;2023-05-07T12:06:16;102062.81;;;17.09;67.43
75221;BME280;63802;53.232;6.570;2023-05-07T12:08:43;102061.50;;;17.70;68.09
75221;BME280;63802;53.232;6.570;2023-05-07T12:11:13;102059.28;;;18.44;66.18
75221;BME280;63802;53.232;6.570;2023-05-07T12:13:39;102051.22;;;18.76;65.45
75221;BME280;63802;53.232;6.570;2023-05-07T12:16:06;102060.59;;;18.57;64.89
75221;BME280;63802;53.232;6.570;2023-05-07T12:18:32;102060.09;;;17.90;65.39
75221;BME280;63802;53.232;6.570;2023-05-07T12:20:58;102064.91;;;18.00;66.39
75221;BME280;63802;53.232;6.570;2023-05-07T12:23:24;102056.34;;;17.31;66.52
75221;BME280;63802;53.232;6.570;2023-05-07T12:25:50;102048.34;;;16.86;67.10
75221;BME280;63802;53.232;6.570;2023-05-07T12:28:17;102059.44;;;17.26;67.54
75221;BME280;63802;53.232;6.570;2023-05-07T12:30:44;102061.13;;;17.34;67.49
75221;BME280;63802;53.232;6.570;2023-05-07T12:33:10;102073.97;;;17.57;67.71
75221;BME280;63802;53.232;6.570;2023-05-07T12:35:42;102063.63;;;17.50;67.34
75221;BME280;63802;53.232;6.570;2023-05-07T12:38:15;102062.50;;;17.95;66.62
75221;BME280;63802;53.232;6.570;2023-05-07T12:40:49;102062.53;;;17.98;66.07
75221;BME280;63802;53.232;6.570;2023-05-07T12:43:17;102038.25;;;18.25;65.58
75221;BME280;63802;53.232;6.570;2023-05-07T12:45:44;102054.00;;;18.18;65.64
75221;BME280;63802;53.232;6.570;2023-05-07T12:48:10;102051.97;;;18.69;65.43
75221;BME280;63802;53.232;6.570;2023-05-07T12:50:36;102058.50;;;18.43;64.46
75221;BME280;63802;53.232;6.570;2023-05-07T12:53:04;102055.25;;;18.99;64.94
75221;BME280;63802;53.232;6.570;2023-05-07T12:55:54;102062.34;;;18.93;63.75
75221;BME280;63802;53.232;6.570;2023-05-07T12:58:24;102053.59;;;18.81;64.28
75221;BME280;63802;53.232;6.570;2023-05-07T13:00:50;102049.88;;;19.45;63.56
75221;BME280;63802;53.232;6.570;2023-05-07T13:03:33;102047.44;;;19.29;63.60
75221;BME280;63802;53.232;6.570;2023-05-07T13:06:01;102058.63;;;20.00;62.37
75221;BME280;63802;53.232;6.570;2023-05-07T13:10:55;102054.66;;;19.83;60.53